sim
Sign-in with your pilot id or email,
or register
Callsign
Passwort

Schedule Details

Flight Number: RYR3253 (3)
Departure: Weeze Airport (EDLV) at 09:10
Arrival: London Stansted Airport (EGSS) at 10:30
Route: Ryanair Passenger Schedule. Enter filed route here before submitting Pirep.

Weather Information
Getting current METAR information for EDLV 241350Z 24007KT 9999 SCT021 04/00 Q0999
Getting current METAR information for EGSS 241420Z AUTO 10008KT 1500 -SN BKN003 BKN009 OVC044 00/00 Q0994

Schedule Frequency

Route Map